Nevis, Saint Kitts and Nevis

6:53 AM AST on August 27, 2014 (GMT -0400)
Newcastle | Change Station
CLOSE
Current Station
Airport
Location: Nevis,
Elevation: 56 ft
Nearby Weather Stations

Elev 56 ft 17.21 °N, 62.59 °W | Updated 53 minutes ago

Scattered Clouds
Scattered Clouds
82 °F
Feels Like 90 °F
N
17
Wind Variable Wind from East

Today
High -- | Low -- °F
--% Chance of Precip.
Yesterday
High -- | Low -- °F
Precip. -- in
5:55 AM 6:27 PM
Waxing Crescent, 3% visible
Pressure 29.98 in
Visibility 6.2 miles
Clouds Scattered Clouds 2000 ft
Heat Index 90 °F
Dew Point 75 °F
Humidity 79%
Rainfall 0.00 in
Snow Depth Not available.
UV 0 out of 12
Pollen Not available.
Air Quality Not available.
Flu Activity Not available.
METAR TKPN 271000Z 09015KT 9999 SCT020 28/24 Q1015

More Conditions Fewer Conditions

Pressure 29.98 in
Visibility 6.2 miles
Clouds Scattered Clouds 2000 ft
Heat Index 90 °F
Dew Point 75 °F
Humidity 79%
Rainfall 0.00 in
Snow Depth Not available.
UV 0 out of 12
Pollen Not available.
Air Quality Not available.
Flu Activity Not available.
METAR TKPN 271000Z 09015KT 9999 SCT020 28/24 Q1015

More Conditions Fewer Conditions

10-Day Weather Forecast

Almanac

Astronomy

Aug. 27, 2014 Rise Set
Actual Time 5:55 AM AST 6:27 PM AST
Civil Twilight 5:33 AM AST 6:49 PM AST
Nautical Twilight 5:07 AM AST 7:15 PM AST
Astronomical Twilight 4:41 AM AST 7:41 PM AST
Moon 7:25 AM AST 7:43 PM AST
Length of Visible Light 13h 15m
Length of Day
12h 31m
Tomorrow will be 0m 55s shorter.
Waxing Crescent, 3% of the Moon is Illuminated
Today
Waxing Crescent
Sep 2
First Quarter
Sep 8
Full
Sep 15
Last Quarter
Sep 24
New

Yesterday's Extremes

Country Highs Country Lows

Community

WunderPhotos

Upload Photos

1,747,666 photos uploaded!

Nearby

Snow Depth

Not available.

Earthquake Activity

City Distance Mag. Time & Date
No recent earthquake activity has been reported nearby.
Minimum magnitude displayed is 2.5.

Coastal Water Temperatures

Place Temperature
No Stations Reporting

Nearby Weather Stations